Report METAR

 

KSJC - San Jose, California, USA
Distance from station: NE 14km
Dati ricevuti: 21/09/2019 21:53
Sereno
Sereno
 Vento da OSO
Vento: OSO 7 km/h
Temperatura: 22°C
P.to Rugiada: 11°C
Umidità: 50%
Barometro: 1013.2 hPa
Nuvole: Sereno
Visibility: 16 km
2019/09/22 04:53 KSJC 220453Z 25004KT 10SM CLR 22/11 A2992 RMK AO2 SLP131 T02170106
KNUQ - Moffett Nas/Mtn, California, USA
Distance from station: N 14km
Dati ricevuti: 21/09/2019 21:56

 
Barometro: 1013.5 hPa
2019/09/22 04:56 KNUQ 220456Z A2993 RMK AO2 SLP139 PWINO $
 
KPAO - Palo Alto, California, USA
Distance from station: NNO 23km
Dati ricevuti: 21/09/2019 20:47
DATI Obsoleti
Sereno
Sereno
 Vento da N
Vento: N 11 km/h
Temperatura: 21°C
P.to Rugiada: 14°C
Umidità: 64%
Barometro: 1012.9 hPa
Nuvole: Sereno
Visibility: 16 km
2019/09/22 03:47 KPAO 220347Z 35006KT 10SM SKC 21/14 A2991 RMK LAST
KRHV - San Jose/Reid, California, USA
Distance from station: ENE 19km
Dati ricevuti: 21/09/2019 21:52
Sereno
Sereno
 Vento da calmo
Vento: Calma
Temperatura: 22°C
P.to Rugiada: 9°C
Umidità: 44%
Barometro: 1013.5 hPa
Nuvole: Sereno
Visibility: 16 km
2019/09/22 04:52 KRHV 220452Z 00000KT 10SM SKC 22/09 A2993 RMK LAST
 
KOAK - Oakland, California, USA
Distance from station: NNO 50km
Dati ricevuti: 21/09/2019 21:53
Sereno
Sereno
 Vento da NO
Vento: NO 9 km/h
Temperatura: 19°C
P.to Rugiada: 13°C
Umidità: 68%
Barometro: 1013.2 hPa
Nuvole: Sereno
Visibility: 16 km
2019/09/22 04:53 KOAK 220453Z 32005KT 10SM CLR 19/13 A2992 RMK AO2 SLP131 T01940128
KSQL - San Carlos Airpo, California, USA
Distance from station: NO 34km
Dati ricevuti: 21/09/2019 20:58
DATI Obsoleti
Sereno
Sereno
 Vento da NO
Vento: NO 6 km/h
Temperatura: 23°C
P.to Rugiada: 7°C
Umidità: 36%
Barometro: 1013.2 hPa
Nuvole: Sereno
Visibility: 16 km
2019/09/22 03:58 KSQL 220358Z 31003KT 10SM SKC 23/07 A2992 RMK LAST
 
KSFO - San Francisco, California, USA
Distance from station: NO 49km
Dati ricevuti: 21/09/2019 21:56
Sereno
Sereno
 Vento da ONO
Vento: ONO 24 km/h
Temperatura: 17°C
P.to Rugiada: 13°C
Umidità: 77%
Barometro: 1013.2 hPa
Nuvole: Sereno
Visibility: 16 km
2019/09/22 04:56 KSFO 220456Z 30013KT 10SM CLR 17/13 A2992 RMK AO2 SLP130 T01720128
KE16 - San Martin, California, USA
Distance from station: ESE 43km
Dati ricevuti: 21/09/2019 22:35
Sereno
Sereno
 Vento da NO
Vento: NO 6 km/h
Temperatura: 20°C
P.to Rugiada: 7°C
Umidità: 43%
Barometro: 1013.9 hPa
Nuvole: Sereno
Visibility: 16 km
2019/09/22 05:35 KE16 220535Z AUTO 32003KT 10SM CLR 20/07 A2994 RMK AO2
 
KWVI - Watsonville, California, USA
Distance from station: SSE 44km
Dati ricevuti: 21/09/2019 21:53
Sereno
Sereno
 Vento da NO
Vento: NO 7 km/h
Temperatura: 18°C
P.to Rugiada: 12°C
Umidità: 68%
Barometro: 1013.2 hPa
Nuvole: Sereno
Visibility: 16 km
2019/09/22 04:53 KWVI 220453Z AUTO 31004KT 10SM CLR 18/12 A2992 RMK AO2 SLP131 T01780117 $
KHAF - Half Moon Bay, California, USA
Distance from station: ONO 50km
Dati ricevuti: 21/09/2019 22:40
Sereno
Sereno
 Vento da calmo
Vento: Calma
Temperatura: 13°C
P.to Rugiada: 12°C
Umidità: 94%
Barometro: 1013.9 hPa
Nuvole: Sereno
Visibility: 11 km
2019/09/22 05:40 KHAF 220540Z AUTO 00000KT 7SM CLR 13/12 A2994 RMK AO2
 
KHWD - Hayward, California, USA
Distance from station: N 44km
Dati ricevuti: 21/09/2019 21:54
Sereno
Sereno
 Vento da calmo
Vento: Calma
Temperatura: 21°C
P.to Rugiada: 13°C
Umidità: 60%
Barometro: 1013.2 hPa
Nuvole: Sereno
Visibility: 16 km
2019/09/22 04:54 KHWD 220454Z 00000KT 10SM CLR 21/13 A2992 RMK AO2 SLP139 T02060128
KLVK - Livermore, California, USA
Distance from station: NNE 51km
Dati ricevuti: 21/09/2019 21:53
Sereno
Sereno
 Vento da calmo
Vento: Calma
Temperatura: 21°C
P.to Rugiada: 8°C
Umidità: 43%
Barometro: 1013.2 hPa
Nuvole: Sereno
Visibility: 16 km
2019/09/22 04:53 KLVK 220453Z 00000KT 10SM CLR 21/08 A2992 RMK AO2 SLP128 T02110083